sensor_id;sensor_type;location;lat;lon;timestamp;pressure;altitude;pressure_sealevel;temperature;humidity
56731;BME280;42613;47.424;8.560;2022-12-18T00:01:23;97606.03;;;-1.91;86.14
56731;BME280;42613;47.424;8.560;2022-12-18T00:03:50;97611.19;;;-1.90;86.21
56731;BME280;42613;47.424;8.560;2022-12-18T00:06:16;97610.06;;;-1.86;85.95
56731;BME280;42613;47.424;8.560;2022-12-18T00:08:42;97600.00;;;-1.92;85.94
56731;BME280;42613;47.424;8.560;2022-12-18T00:11:10;97615.38;;;-1.87;86.17
56731;BME280;42613;47.424;8.560;2022-12-18T00:13:36;97616.56;;;-1.93;86.46
56731;BME280;42613;47.424;8.560;2022-12-18T00:16:06;97625.63;;;-1.98;86.40
56731;BME280;42613;47.424;8.560;2022-12-18T00:18:33;97627.41;;;-1.99;86.08
56731;BME280;42613;47.424;8.560;2022-12-18T00:21:04;97624.03;;;-2.01;86.30
56731;BME280;42613;47.424;8.560;2022-12-18T00:23:30;97631.19;;;-2.05;86.62
56731;BME280;42613;47.424;8.560;2022-12-18T00:26:07;97632.03;;;-2.04;86.99
56731;BME280;42613;47.424;8.560;2022-12-18T00:28:34;97638.69;;;-1.98;86.80
56731;BME280;42613;47.424;8.560;2022-12-18T00:31:01;97631.00;;;-2.01;86.62
56731;BME280;42613;47.424;8.560;2022-12-18T00:33:27;97630.44;;;-2.07;86.31
56731;BME280;42613;47.424;8.560;2022-12-18T00:35:52;97637.25;;;-2.04;86.87
56731;BME280;42613;47.424;8.560;2022-12-18T00:38:17;97632.88;;;-2.03;86.96
56731;BME280;42613;47.424;8.560;2022-12-18T00:40:43;97623.56;;;-1.93;86.47
56731;BME280;42613;47.424;8.560;2022-12-18T00:43:08;97622.19;;;-1.85;nan
56731;BME280;42613;47.424;8.560;2022-12-18T00:45:34;97626.97;;;-1.77;85.79
56731;BME280;42613;47.424;8.560;2022-12-18T00:47:59;97618.09;;;-1.74;85.75
56731;BME280;42613;47.424;8.560;2022-12-18T00:50:25;97614.00;;;-1.64;85.13
56731;BME280;42613;47.424;8.560;2022-12-18T00:52:51;97618.41;;;-1.50;84.87
56731;BME280;42613;47.424;8.560;2022-12-18T00:55:17;97630.34;;;-1.46;84.39
56731;BME280;42613;47.424;8.560;2022-12-18T00:57:42;97636.69;;;-1.65;85.09
56731;BME280;42613;47.424;8.560;2022-12-18T01:00:11;97637.41;;;-1.77;85.47
56731;BME280;42613;47.424;8.560;2022-12-18T01:02:38;97645.69;;;-1.85;86.05
56731;BME280;42613;47.424;8.560;2022-12-18T01:05:03;97640.75;;;-1.89;85.98
56731;BME280;42613;47.424;8.560;2022-12-18T01:07:29;97649.41;;;-1.89;86.32
56731;BME280;42613;47.424;8.560;2022-12-18T01:09:54;97649.53;;;-1.90;86.34
56731;BME280;42613;47.424;8.560;2022-12-18T01:12:23;97651.19;;;-1.89;86.48
56731;BME280;42613;47.424;8.560;2022-12-18T01:14:48;97645.41;;;-1.94;86.54
56731;BME280;42613;47.424;8.560;2022-12-18T01:17:14;97639.44;;;-1.96;86.49
56731;BME280;42613;47.424;8.560;2022-12-18T01:19:39;97641.09;;;-1.95;86.68
56731;BME280;42613;47.424;8.560;2022-12-18T01:22:05;97654.56;;;-1.87;86.66
56731;BME280;42613;47.424;8.560;2022-12-18T01:24:30;97662.47;;;-1.89;86.37
56731;BME280;42613;47.424;8.560;2022-12-18T01:26:55;97665.19;;;-1.90;86.24
56731;BME280;42613;47.424;8.560;2022-12-18T01:29:22;97658.25;;;-1.91;86.39
56731;BME280;42613;47.424;8.560;2022-12-18T01:31:48;97659.38;;;-1.95;86.88
56731;BME280;42613;47.424;8.560;2022-12-18T01:34:13;97671.50;;;-1.94;86.69
56731;BME280;42613;47.424;8.560;2022-12-18T01:36:38;97669.94;;;-1.97;86.50
56731;BME280;42613;47.424;8.560;2022-12-18T01:39:10;97673.44;;;-1.98;86.48
56731;BME280;42613;47.424;8.560;2022-12-18T01:41:36;97676.16;;;-1.99;86.76
56731;BME280;42613;47.424;8.560;2022-12-18T01:44:56;97679.34;;;-1.94;86.67
56731;BME280;42613;47.424;8.560;2022-12-18T01:47:36;97672.69;;;-2.00;86.56
56731;BME280;42613;47.424;8.560;2022-12-18T01:50:09;97676.34;;;-2.02;87.06
56731;BME280;42613;47.424;8.560;2022-12-18T01:52:35;97681.91;;;-2.09;86.74
56731;BME280;42613;47.424;8.560;2022-12-18T01:55:03;97679.28;;;-2.09;87.16
56731;BME280;42613;47.424;8.560;2022-12-18T01:57:30;97693.19;;;-2.08;86.94
56731;BME280;42613;47.424;8.560;2022-12-18T01:59:59;97683.69;;;-2.09;86.97
56731;BME280;42613;47.424;8.560;2022-12-18T02:02:27;97682.94;;;-2.11;87.10
56731;BME280;42613;47.424;8.560;2022-12-18T02:04:53;97692.34;;;-2.09;86.85
56731;BME280;42613;47.424;8.560;2022-12-18T02:10:12;97688.91;;;-2.09;86.70
56731;BME280;42613;47.424;8.560;2022-12-18T02:12:49;97687.13;;;-2.09;86.81
56731;BME280;42613;47.424;8.560;2022-12-18T02:18:05;97678.72;;;-2.14;87.10
56731;BME280;42613;47.424;8.560;2022-12-18T02:20:43;97686.38;;;-2.11;86.65
56731;BME280;42613;47.424;8.560;2022-12-18T02:23:35;97680.41;;;-2.13;87.05
56731;BME280;42613;47.424;8.560;2022-12-18T02:26:29;97678.47;;;-2.09;86.74
56731;BME280;42613;47.424;8.560;2022-12-18T02:29:00;97688.22;;;-2.13;87.05
56731;BME280;42613;47.424;8.560;2022-12-18T02:31:30;97682.94;;;-2.11;86.62
56731;BME280;42613;47.424;8.560;2022-12-18T02:34:02;97689.91;;;-2.12;86.75
56731;BME280;42613;47.424;8.560;2022-12-18T02:36:31;97690.63;;;-1.94;86.50
56731;BME280;42613;47.424;8.560;2022-12-18T02:38:58;97692.63;;;-1.83;86.05
56731;BME280;42613;47.424;8.560;2022-12-18T02:41:25;97689.94;;;-1.97;85.43
56731;BME280;42613;47.424;8.560;2022-12-18T02:43:58;97687.59;;;-2.02;86.00
56731;BME280;42613;47.424;8.560;2022-12-18T02:47:02;97687.88;;;-2.07;86.37
56731;BME280;42613;47.424;8.560;2022-12-18T02:49:44;97687.13;;;-2.09;86.42
56731;BME280;42613;47.424;8.560;2022-12-18T02:52:55;97696.53;;;-2.06;86.27
56731;BME280;42613;47.424;8.560;2022-12-18T02:55:35;97691.50;;;-2.09;86.44
56731;BME280;42613;47.424;8.560;2022-12-18T02:58:04;97697.56;;;-2.09;86.33
56731;BME280;42613;47.424;8.560;2022-12-18T03:00:37;97690.84;;;-2.13;86.74
56731;BME280;42613;47.424;8.560;2022-12-18T03:03:14;97691.94;;;-2.17;87.05
56731;BME280;42613;47.424;8.560;2022-12-18T03:05:51;97700.25;;;-2.10;86.94
56731;BME280;42613;47.424;8.560;2022-12-18T03:08:23;97696.06;;;-2.13;87.10
56731;BME280;42613;47.424;8.560;2022-12-18T03:11:03;97695.53;;;-2.03;86.99
56731;BME280;42613;47.424;8.560;2022-12-18T03:13:52;97698.47;;;-1.94;86.91
56731;BME280;42613;47.424;8.560;2022-12-18T03:16:27;97696.03;;;-1.97;86.61
56731;BME280;42613;47.424;8.560;2022-12-18T03:19:07;97706.97;;;-2.06;86.71
56731;BME280;42613;47.424;8.560;2022-12-18T03:21:37;97718.84;;;-2.00;87.06
56731;BME280;42613;47.424;8.560;2022-12-18T03:24:07;97724.75;;;-1.97;86.65
56731;BME280;42613;47.424;8.560;2022-12-18T03:26:34;97720.09;;;-1.92;86.57
56731;BME280;42613;47.424;8.560;2022-12-18T03:29:07;97714.38;;;-1.98;86.52
56731;BME280;42613;47.424;8.560;2022-12-18T03:31:34;97711.28;;;-2.05;86.86
56731;BME280;42613;47.424;8.560;2022-12-18T03:34:04;97715.91;;;-2.10;87.29
56731;BME280;42613;47.424;8.560;2022-12-18T03:36:34;97722.72;;;-2.08;87.23
56731;BME280;42613;47.424;8.560;2022-12-18T03:38:59;97724.69;;;-2.11;87.45
56731;BME280;42613;47.424;8.560;2022-12-18T03:41:33;97719.97;;;-2.20;87.37
56731;BME280;42613;47.424;8.560;2022-12-18T03:44:11;97715.44;;;-2.17;87.44
56731;BME280;42613;47.424;8.560;2022-12-18T03:49:31;97726.88;;;-2.19;87.96
56731;BME280;42613;47.424;8.560;2022-12-18T03:52:07;97728.75;;;-2.21;87.83
56731;BME280;42613;47.424;8.560;2022-12-18T03:54:35;97732.25;;;-2.22;87.88
56731;BME280;42613;47.424;8.560;2022-12-18T03:57:09;97732.41;;;-2.10;87.67
56731;BME280;42613;47.424;8.560;2022-12-18T03:59:37;97737.75;;;-2.11;87.50
56731;BME280;42613;47.424;8.560;2022-12-18T04:02:04;97740.16;;;-2.08;86.94
56731;BME280;42613;47.424;8.560;2022-12-18T04:04:33;97744.63;;;-2.10;86.89
56731;BME280;42613;47.424;8.560;2022-12-18T04:07:00;97746.47;;;-2.12;86.64
56731;BME280;42613;47.424;8.560;2022-12-18T04:09:27;97741.53;;;-2.17;87.21
56731;BME280;42613;47.424;8.560;2022-12-18T04:11:53;97743.97;;;-2.14;87.07
56731;BME280;42613;47.424;8.560;2022-12-18T04:14:18;97740.25;;;-2.10;87.33
56731;BME280;42613;47.424;8.560;2022-12-18T04:16:44;97735.28;;;-2.14;87.25
56731;BME280;42613;47.424;8.560;2022-12-18T04:19:09;97751.84;;;-1.99;86.82
56731;BME280;42613;47.424;8.560;2022-12-18T04:21:35;97742.22;;;-1.83;86.47
56731;BME280;42613;47.424;8.560;2022-12-18T04:24:00;97739.75;;;-1.70;85.67
56731;BME280;42613;47.424;8.560;2022-12-18T04:26:25;97740.78;;;-1.73;85.60
56731;BME280;42613;47.424;8.560;2022-12-18T04:28:50;97752.03;;;-1.56;85.08
56731;BME280;42613;47.424;8.560;2022-12-18T04:31:16;97748.78;;;-1.46;84.24
56731;BME280;42613;47.424;8.560;2022-12-18T04:33:41;97754.28;;;-1.36;83.97
56731;BME280;42613;47.424;8.560;2022-12-18T04:36:07;97760.75;;;-1.27;83.17
56731;BME280;42613;47.424;8.560;2022-12-18T04:38:32;97760.38;;;-1.21;82.98
56731;BME280;42613;47.424;8.560;2022-12-18T04:40:58;97768.53;;;-1.11;82.41
56731;BME280;42613;47.424;8.560;2022-12-18T04:43:23;97763.22;;;-1.10;81.92
56731;BME280;42613;47.424;8.560;2022-12-18T04:45:48;97757.88;;;-1.08;81.87
56731;BME280;42613;47.424;8.560;2022-12-18T04:48:14;97763.59;;;-1.01;81.36
56731;BME280;42613;47.424;8.560;2022-12-18T04:50:39;97767.69;;;-0.97;80.93
56731;BME280;42613;47.424;8.560;2022-12-18T04:53:04;97760.13;;;-1.02;80.78
56731;BME280;42613;47.424;8.560;2022-12-18T04:55:30;97763.47;;;-1.00;80.58
56731;BME280;42613;47.424;8.560;2022-12-18T04:57:55;97765.34;;;-1.02;80.48
56731;BME280;42613;47.424;8.560;2022-12-18T05:00:21;97766.28;;;-1.03;80.72
56731;BME280;42613;47.424;8.560;2022-12-18T05:02:47;97758.91;;;-1.11;80.51
56731;BME280;42613;47.424;8.560;2022-12-18T05:05:12;97751.81;;;-1.09;80.49
56731;BME280;42613;47.424;8.560;2022-12-18T05:07:38;97758.63;;;-1.20;80.67
56731;BME280;42613;47.424;8.560;2022-12-18T05:10:07;97764.69;;;-1.20;80.80
56731;BME280;42613;47.424;8.560;2022-12-18T05:12:32;97750.59;;;-1.17;80.87
56731;BME280;42613;47.424;8.560;2022-12-18T05:14:57;97738.34;;;-1.17;80.74
56731;BME280;42613;47.424;8.560;2022-12-18T05:17:23;97744.03;;;-1.10;80.55
56731;BME280;42613;47.424;8.560;2022-12-18T05:19:48;97745.53;;;-1.06;80.28
56731;BME280;42613;47.424;8.560;2022-12-18T05:22:14;97752.47;;;-1.05;80.41
56731;BME280;42613;47.424;8.560;2022-12-18T05:24:39;97756.75;;;-1.18;80.43
56731;BME280;42613;47.424;8.560;2022-12-18T05:27:04;97755.81;;;-1.17;81.34
56731;BME280;42613;47.424;8.560;2022-12-18T05:29:30;97770.09;;;-1.09;81.03
56731;BME280;42613;47.424;8.560;2022-12-18T05:31:55;97764.78;;;-1.07;81.21
56731;BME280;42613;47.424;8.560;2022-12-18T05:34:20;97758.63;;;-1.06;80.99
56731;BME280;42613;47.424;8.560;2022-12-18T05:36:46;97774.88;;;-1.01;81.26
56731;BME280;42613;47.424;8.560;2022-12-18T05:39:11;97774.97;;;-1.03;81.28
56731;BME280;42613;47.424;8.560;2022-12-18T05:41:36;97769.47;;;-0.98;80.91
56731;BME280;42613;47.424;8.560;2022-12-18T05:44:02;97770.22;;;-0.96;81.01
56731;BME280;42613;47.424;8.560;2022-12-18T05:46:27;97770.13;;;-0.94;80.99
56731;BME280;42613;47.424;8.560;2022-12-18T05:48:52;97777.13;;;-0.95;81.17
56731;BME280;42613;47.424;8.560;2022-12-18T05:51:20;97772.66;;;-0.93;81.16
56731;BME280;42613;47.424;8.560;2022-12-18T05:53:46;97772.09;;;-0.84;80.53
56731;BME280;42613;47.424;8.560;2022-12-18T05:56:14;97778.06;;;-0.82;80.43
56731;BME280;42613;47.424;8.560;2022-12-18T05:58:40;97763.41;;;-0.84;80.21
56731;BME280;42613;47.424;8.560;2022-12-18T06:01:14;97770.41;;;-0.85;80.48
56731;BME280;42613;47.424;8.560;2022-12-18T06:03:40;97766.03;;;-0.84;80.19
56731;BME280;42613;47.424;8.560;2022-12-18T06:06:15;97766.84;;;-0.84;80.41
56731;BME280;42613;47.424;8.560;2022-12-18T06:08:40;97766.94;;;-0.85;80.38
56731;BME280;42613;47.424;8.560;2022-12-18T06:11:06;97773.94;;;-0.86;80.29
56731;BME280;42613;47.424;8.560;2022-12-18T06:13:31;97779.28;;;-0.87;80.43
56731;BME280;42613;47.424;8.560;2022-12-18T06:15:56;97780.50;;;-0.93;80.71
56731;BME280;42613;47.424;8.560;2022-12-18T06:18:22;97788.97;;;-0.89;80.53
56731;BME280;42613;47.424;8.560;2022-12-18T06:20:57;97788.13;;;-1.04;81.25
56731;BME280;42613;47.424;8.560;2022-12-18T06:23:23;97793.91;;;-1.13;81.84
56731;BME280;42613;47.424;8.560;2022-12-18T06:25:49;97796.16;;;-1.07;82.02
56731;BME280;42613;47.424;8.560;2022-12-18T06:28:14;97802.81;;;-1.01;81.72
56731;BME280;42613;47.424;8.560;2022-12-18T06:30:43;97804.03;;;-0.93;81.47
56731;BME280;42613;47.424;8.560;2022-12-18T06:33:08;97797.03;;;-0.92;81.18
56731;BME280;42613;47.424;8.560;2022-12-18T06:35:34;97803.94;;;-0.91;81.50
56731;BME280;42613;47.424;8.560;2022-12-18T06:38:01;97793.47;;;-0.91;81.15
56731;BME280;42613;47.424;8.560;2022-12-18T06:40:26;97787.41;;;-0.92;81.37
56731;BME280;42613;47.424;8.560;2022-12-18T06:42:51;97785.53;;;-0.90;81.10
56731;BME280;42613;47.424;8.560;2022-12-18T06:45:17;97793.22;;;-0.87;81.17
56731;BME280;42613;47.424;8.560;2022-12-18T06:47:42;97800.09;;;-0.86;80.78
56731;BME280;42613;47.424;8.560;2022-12-18T06:50:08;97813.19;;;-0.86;81.07
56731;BME280;42613;47.424;8.560;2022-12-18T06:52:33;97808.91;;;-0.87;80.89
56731;BME280;42613;47.424;8.560;2022-12-18T06:54:59;97824.19;;;-0.80;80.76
56731;BME280;42613;47.424;8.560;2022-12-18T06:57:24;97831.97;;;-0.79;81.04
56731;BME280;42613;47.424;8.560;2022-12-18T06:59:50;97834.41;;;-0.76;80.50
56731;BME280;42613;47.424;8.560;2022-12-18T07:02:15;97834.22;;;-0.73;80.62
56731;BME280;42613;47.424;8.560;2022-12-18T07:04:40;97834.13;;;-0.71;80.35
56731;BME280;42613;47.424;8.560;2022-12-18T07:07:05;97820.38;;;-0.75;80.65
56731;BME280;42613;47.424;8.560;2022-12-18T07:09:31;97844.00;;;-0.76;80.51
56731;BME280;42613;47.424;8.560;2022-12-18T07:11:56;97839.81;;;-0.79;81.05
56731;BME280;42613;47.424;8.560;2022-12-18T07:14:21;97838.03;;;-0.78;80.98
56731;BME280;42613;47.424;8.560;2022-12-18T07:16:47;97835.41;;;-0.78;80.73
56731;BME280;42613;47.424;8.560;2022-12-18T07:19:12;97841.41;;;-0.76;80.56
56731;BME280;42613;47.424;8.560;2022-12-18T07:21:38;97847.66;;;-0.79;81.11
56731;BME280;42613;47.424;8.560;2022-12-18T07:24:03;97845.25;;;-0.82;81.23
56731;BME280;42613;47.424;8.560;2022-12-18T07:26:29;97851.97;;;-0.78;81.47
56731;BME280;42613;47.424;8.560;2022-12-18T07:28:55;97853.56;;;-0.75;81.68
56731;BME280;42613;47.424;8.560;2022-12-18T07:31:23;97862.31;;;-0.76;81.43
56731;BME280;42613;47.424;8.560;2022-12-18T07:33:49;97846.00;;;-0.80;81.15
56731;BME280;42613;47.424;8.560;2022-12-18T07:36:15;97840.84;;;-0.82;80.40
56731;BME280;42613;47.424;8.560;2022-12-18T07:38:41;97860.28;;;-0.71;80.34
56731;BME280;42613;47.424;8.560;2022-12-18T07:41:09;97863.75;;;-0.71;80.23
56731;BME280;42613;47.424;8.560;2022-12-18T07:43:36;97860.28;;;-0.71;80.10
56731;BME280;42613;47.424;8.560;2022-12-18T07:46:01;97865.34;;;-0.68;79.79
56731;BME280;42613;47.424;8.560;2022-12-18T07:48:28;97868.06;;;-0.70;79.60
56731;BME280;42613;47.424;8.560;2022-12-18T07:50:53;97867.78;;;-0.65;79.72
56731;BME280;42613;47.424;8.560;2022-12-18T07:53:18;97858.44;;;-0.69;79.51
56731;BME280;42613;47.424;8.560;2022-12-18T07:55:44;97861.78;;;-0.67;79.45
56731;BME280;42613;47.424;8.560;2022-12-18T07:58:09;97872.91;;;-0.64;79.85
56731;BME280;42613;47.424;8.560;2022-12-18T08:00:35;97867.94;;;-0.68;79.72
56731;BME280;42613;47.424;8.560;2022-12-18T08:03:00;97877.03;;;-0.74;79.97
56731;BME280;42613;47.424;8.560;2022-12-18T08:05:26;97876.91;;;-0.87;80.46
56731;BME280;42613;47.424;8.560;2022-12-18T08:07:52;97886.69;;;-0.90;80.95
56731;BME280;42613;47.424;8.560;2022-12-18T08:10:19;97879.88;;;-0.78;80.28
56731;BME280;42613;47.424;8.560;2022-12-18T08:12:44;97879.53;;;-0.72;79.91
56731;BME280;42613;47.424;8.560;2022-12-18T08:15:10;97872.44;;;-0.70;78.81
56731;BME280;42613;47.424;8.560;2022-12-18T08:17:35;97878.25;;;-0.65;78.19
56731;BME280;42613;47.424;8.560;2022-12-18T08:20:01;97888.72;;;-0.65;78.44
56731;BME280;42613;47.424;8.560;2022-12-18T08:22:26;97885.25;;;-0.66;78.42
56731;BME280;42613;47.424;8.560;2022-12-18T08:24:51;97886.94;;;-0.65;78.96
56731;BME280;42613;47.424;8.560;2022-12-18T08:27:17;97888.72;;;-0.65;78.93
56731;BME280;42613;47.424;8.560;2022-12-18T08:29:42;97891.97;;;-0.62;79.13
56731;BME280;42613;47.424;8.560;2022-12-18T08:32:08;97896.94;;;-0.57;78.74
56731;BME280;42613;47.424;8.560;2022-12-18T08:34:33;97898.44;;;-0.53;78.66
56731;BME280;42613;47.424;8.560;2022-12-18T08:36:59;97892.34;;;-0.53;78.54
56731;BME280;42613;47.424;8.560;2022-12-18T08:39:24;97894.53;;;-0.46;78.46
56731;BME280;42613;47.424;8.560;2022-12-18T08:41:49;97898.63;;;-0.42;78.73
56731;BME280;42613;47.424;8.560;2022-12-18T08:44:38;97910.53;;;-0.36;78.80
56731;BME280;42613;47.424;8.560;2022-12-18T08:47:05;97900.06;;;-0.36;78.71
56731;BME280;42613;47.424;8.560;2022-12-18T08:49:30;97893.88;;;-0.35;78.37
56731;BME280;42613;47.424;8.560;2022-12-18T08:51:56;97897.31;;;-0.34;78.52
56731;BME280;42613;47.424;8.560;2022-12-18T08:54:31;97892.53;;;-0.28;78.25
56731;BME280;42613;47.424;8.560;2022-12-18T08:57:07;97880.56;;;-0.32;78.12
56731;BME280;42613;47.424;8.560;2022-12-18T09:02:34;97869.84;;;-0.27;77.72
56731;BME280;42613;47.424;8.560;2022-12-18T09:05:19;97867.78;;;-0.22;77.48
56731;BME280;42613;47.424;8.560;2022-12-18T09:07:52;97862.25;;;-0.17;77.44
56731;BME280;42613;47.424;8.560;2022-12-18T09:10:24;97866.94;;;-0.08;77.29
56731;BME280;42613;47.424;8.560;2022-12-18T09:12:50;97870.94;;;-0.03;77.09
56731;BME280;42613;47.424;8.560;2022-12-18T09:15:17;97861.56;;;-0.07;77.12
56731;BME280;42613;47.424;8.560;2022-12-18T09:17:50;97857.28;;;-0.08;77.03
56731;BME280;42613;47.424;8.560;2022-12-18T09:20:18;97861.03;;;0.03;77.22
56731;BME280;42613;47.424;8.560;2022-12-18T09:22:46;97867.19;;;0.02;77.53
56731;BME280;42613;47.424;8.560;2022-12-18T09:25:20;97862.91;;;-0.14;77.23
56731;BME280;42613;47.424;8.560;2022-12-18T09:27:47;97856.19;;;-0.18;77.20
56731;BME280;42613;47.424;8.560;2022-12-18T09:30:12;97862.31;;;-0.05;76.58
56731;BME280;42613;47.424;8.560;2022-12-18T09:32:43;97867.03;;;-0.10;76.54
56731;BME280;42613;47.424;8.560;2022-12-18T09:35:09;97867.56;;;-0.05;77.00
56731;BME280;42613;47.424;8.560;2022-12-18T09:37:35;97871.88;;;-0.04;77.05
56731;BME280;42613;47.424;8.560;2022-12-18T09:40:03;97874.28;;;0.14;78.10
56731;BME280;42613;47.424;8.560;2022-12-18T09:42:29;97863.41;;;0.20;78.07
56731;BME280;42613;47.424;8.560;2022-12-18T09:44:55;97875.81;;;0.31;76.98
56731;BME280;42613;47.424;8.560;2022-12-18T09:47:30;97874.78;;;0.33;76.76
56731;BME280;42613;47.424;8.560;2022-12-18T09:50:06;97871.13;;;0.09;76.30
56731;BME280;42613;47.424;8.560;2022-12-18T09:52:44;97873.63;;;0.10;76.43
56731;BME280;42613;47.424;8.560;2022-12-18T09:55:17;97872.66;;;0.26;76.32
56731;BME280;42613;47.424;8.560;2022-12-18T09:57:51;97874.25;;;0.28;75.97
56731;BME280;42613;47.424;8.560;2022-12-18T10:00:22;97867.66;;;0.35;75.52
56731;BME280;42613;47.424;8.560;2022-12-18T10:02:50;97865.78;;;0.37;75.05
56731;BME280;42613;47.424;8.560;2022-12-18T10:05:22;97869.97;;;0.40;74.84
56731;BME280;42613;47.424;8.560;2022-12-18T10:08:15;97882.06;;;0.43;74.65
56731;BME280;42613;47.424;8.560;2022-12-18T10:11:00;97868.50;;;0.36;74.40
56731;BME280;42613;47.424;8.560;2022-12-18T10:13:55;97865.41;;;0.44;74.65
56731;BME280;42613;47.424;8.560;2022-12-18T10:20:08;97881.38;;;0.53;74.74
56731;BME280;42613;47.424;8.560;2022-12-18T10:25:53;97882.47;;;0.36;75.02
56731;BME280;42613;47.424;8.560;2022-12-18T10:28:24;97885.50;;;0.16;76.06
56731;BME280;42613;47.424;8.560;2022-12-18T10:30:53;97897.63;;;0.31;75.54
56731;BME280;42613;47.424;8.560;2022-12-18T10:33:23;97897.81;;;0.28;75.56
56731;BME280;42613;47.424;8.560;2022-12-18T10:35:53;97882.84;;;0.30;74.97
56731;BME280;42613;47.424;8.560;2022-12-18T10:41:06;97871.25;;;0.34;74.91
56731;BME280;42613;47.424;8.560;2022-12-18T10:44:26;97876.00;;;0.01;75.90
56731;BME280;42613;47.424;8.560;2022-12-18T10:47:05;97877.25;;;0.22;75.86
56731;BME280;42613;47.424;8.560;2022-12-18T10:49:33;97874.38;;;0.39;75.25
56731;BME280;42613;47.424;8.560;2022-12-18T10:52:17;97886.94;;;0.49;77.59
56731;BME280;42613;47.424;8.560;2022-12-18T10:54:54;97903.38;;;0.24;77.22
56731;BME280;42613;47.424;8.560;2022-12-18T10:57:37;97897.97;;;0.39;80.73
56731;BME280;42613;47.424;8.560;2022-12-18T11:02:44;97900.97;;;-0.08;78.90
56731;BME280;42613;47.424;8.560;2022-12-18T11:05:33;97901.06;;;-0.10;78.70
56731;BME280;42613;47.424;8.560;2022-12-18T11:08:00;97896.38;;;-0.05;79.04
56731;BME280;42613;47.424;8.560;2022-12-18T11:10:33;97893.75;;;-0.05;78.75
56731;BME280;42613;47.424;8.560;2022-12-18T11:15:41;97884.75;;;0.14;80.42
56731;BME280;42613;47.424;8.560;2022-12-18T11:18:20;97879.22;;;0.04;78.80
56731;BME280;42613;47.424;8.560;2022-12-18T11:20:56;97855.63;;;0.18;78.86
56731;BME280;42613;47.424;8.560;2022-12-18T11:23:23;97850.81;;;0.39;77.07
56731;BME280;42613;47.424;8.560;2022-12-18T11:25:57;97858.97;;;0.62;75.71
56731;BME280;42613;47.424;8.560;2022-12-18T11:31:20;97851.94;;;0.63;76.15
56731;BME280;42613;47.424;8.560;2022-12-18T11:51:19;97823.72;;;1.19;72.39
56731;BME280;42613;47.424;8.560;2022-12-18T12:00:49;97838.19;;;1.12;72.74
56731;BME280;42613;47.424;8.560;2022-12-18T12:03:58;97824.44;;;0.95;73.42
56731;BME280;42613;47.424;8.560;2022-12-18T12:09:47;97836.41;;;1.12;73.00
56731;BME280;42613;47.424;8.560;2022-12-18T12:15:55;97832.09;;;0.98;73.33
56731;BME280;42613;47.424;8.560;2022-12-18T12:22:08;97823.38;;;0.98;73.37
56731;BME280;42613;47.424;8.560;2022-12-18T12:28:01;97807.75;;;1.22;72.48
56731;BME280;42613;47.424;8.560;2022-12-18T12:34:11;97803.31;;;1.35;72.23
56731;BME280;42613;47.424;8.560;2022-12-18T12:37:06;97801.03;;;1.31;71.90
56731;BME280;42613;47.424;8.560;2022-12-18T12:39:40;97800.94;;;1.32;72.18
56731;BME280;42613;47.424;8.560;2022-12-18T12:42:14;97816.34;;;1.37;71.90
56731;BME280;42613;47.424;8.560;2022-12-18T12:45:16;97798.41;;;1.31;72.00
56731;BME280;42613;47.424;8.560;2022-12-18T12:47:48;97803.22;;;1.37;72.52
56731;BME280;42613;47.424;8.560;2022-12-18T12:50:18;97790.31;;;1.34;72.66
56731;BME280;42613;47.424;8.560;2022-12-18T12:52:53;97786.00;;;1.33;72.96
56731;BME280;42613;47.424;8.560;2022-12-18T12:55:25;97782.66;;;1.31;72.72
56731;BME280;42613;47.424;8.560;2022-12-18T12:57:59;97792.81;;;1.35;73.01
56731;BME280;42613;47.424;8.560;2022-12-18T13:00:30;97796.41;;;1.34;72.54
56731;BME280;42613;47.424;8.560;2022-12-18T13:03:11;97789.47;;;1.33;72.84
56731;BME280;42613;47.424;8.560;2022-12-18T13:05:54;97784.44;;;1.43;72.63
56731;BME280;42613;47.424;8.560;2022-12-18T13:08:30;97787.88;;;1.43;72.62
56731;BME280;42613;47.424;8.560;2022-12-18T13:11:02;97792.41;;;1.41;72.38
56731;BME280;42613;47.424;8.560;2022-12-18T13:13:55;97790.00;;;1.38;72.59
56731;BME280;42613;47.424;8.560;2022-12-18T13:16:25;97807.22;;;1.42;72.86
56731;BME280;42613;47.424;8.560;2022-12-18T13:18:54;97800.69;;;1.35;72.75
56731;BME280;42613;47.424;8.560;2022-12-18T13:21:28;97801.88;;;1.31;73.36
56731;BME280;42613;47.424;8.560;2022-12-18T13:23:54;97798.19;;;1.34;73.30
56731;BME280;42613;47.424;8.560;2022-12-18T13:28:52;97795.69;;;1.32;73.28
56731;BME280;42613;47.424;8.560;2022-12-18T13:34:25;97801.75;;;1.33;73.08
56731;BME280;42613;47.424;8.560;2022-12-18T13:36:51;97785.81;;;1.23;73.32
56731;BME280;42613;47.424;8.560;2022-12-18T13:41:47;97809.63;;;1.33;73.65
56731;BME280;42613;47.424;8.560;2022-12-18T13:46:51;97793.16;;;1.31;73.67
56731;BME280;42613;47.424;8.560;2022-12-18T13:49:28;97808.47;;;1.37;73.73
56731;BME280;42613;47.424;8.560;2022-12-18T13:51:56;97793.69;;;1.36;73.31
56731;BME280;42613;47.424;8.560;2022-12-18T13:54:37;97800.41;;;1.40;73.41
56731;BME280;42613;47.424;8.560;2022-12-18T13:57:23;97789.47;;;1.33;73.27
56731;BME280;42613;47.424;8.560;2022-12-18T13:59:57;97798.06;;;1.35;73.20
56731;BME280;42613;47.424;8.560;2022-12-18T14:02:28;97789.78;;;1.29;73.50
56731;BME280;42613;47.424;8.560;2022-12-18T14:04:54;97799.88;;;1.35;73.11
56731;BME280;42613;47.424;8.560;2022-12-18T14:07:24;97799.03;;;1.34;73.55
56731;BME280;42613;47.424;8.560;2022-12-18T14:09:52;97788.97;;;1.28;73.75
56731;BME280;42613;47.424;8.560;2022-12-18T14:12:24;97801.34;;;1.26;73.83
56731;BME280;42613;47.424;8.560;2022-12-18T14:17:50;97786.84;;;1.20;74.03
56731;BME280;42613;47.424;8.560;2022-12-18T14:20:26;97790.75;;;1.28;73.67
56731;BME280;42613;47.424;8.560;2022-12-18T14:22:55;97797.34;;;1.20;73.86
56731;BME280;42613;47.424;8.560;2022-12-18T14:25:23;97808.91;;;1.18;74.19
56731;BME280;42613;47.424;8.560;2022-12-18T14:28:13;97807.97;;;1.19;73.89
56731;BME280;42613;47.424;8.560;2022-12-18T14:30:45;97800.94;;;1.19;74.27
56731;BME280;42613;47.424;8.560;2022-12-18T14:33:20;97810.59;;;1.19;74.22
56731;BME280;42613;47.424;8.560;2022-12-18T14:36:01;97794.84;;;1.06;74.37
56731;BME280;42613;47.424;8.560;2022-12-18T14:45:32;97805.94;;;1.10;74.81
56731;BME280;42613;47.424;8.560;2022-12-18T14:51:28;97807.00;;;1.07;75.16
56731;BME280;42613;47.424;8.560;2022-12-18T14:54:17;97807.75;;;1.09;75.08